sensor_id;sensor_type;location;lat;lon;timestamp;temperature;humidity
19974;DHT22;10148;47.694;9.442;2022-07-23T00:00:32;19.10;99.90
19974;DHT22;10148;47.694;9.442;2022-07-23T00:02:57;19.10;99.90
19974;DHT22;10148;47.694;9.442;2022-07-23T00:05:23;19.20;99.90
19974;DHT22;10148;47.694;9.442;2022-07-23T00:07:48;19.30;99.90
19974;DHT22;10148;47.694;9.442;2022-07-23T00:10:14;19.40;99.90
19974;DHT22;10148;47.694;9.442;2022-07-23T00:12:40;19.40;99.90
19974;DHT22;10148;47.694;9.442;2022-07-23T00:15:09;19.30;99.90
19974;DHT22;10148;47.694;9.442;2022-07-23T00:17:34;19.20;99.90
19974;DHT22;10148;47.694;9.442;2022-07-23T00:20:00;19.20;99.90
19974;DHT22;10148;47.694;9.442;2022-07-23T00:22:26;19.20;99.90
19974;DHT22;10148;47.694;9.442;2022-07-23T00:24:54;19.20;99.90
19974;DHT22;10148;47.694;9.442;2022-07-23T00:27:20;19.20;99.90
19974;DHT22;10148;47.694;9.442;2022-07-23T00:29:45;19.20;99.90
19974;DHT22;10148;47.694;9.442;2022-07-23T00:32:11;19.30;99.90
19974;DHT22;10148;47.694;9.442;2022-07-23T00:34:36;19.30;99.90
19974;DHT22;10148;47.694;9.442;2022-07-23T00:37:02;19.40;99.90
19974;DHT22;10148;47.694;9.442;2022-07-23T00:39:27;19.40;99.90
19974;DHT22;10148;47.694;9.442;2022-07-23T00:41:53;19.30;99.90
19974;DHT22;10148;47.694;9.442;2022-07-23T00:44:24;19.30;99.90
19974;DHT22;10148;47.694;9.442;2022-07-23T00:46:57;19.30;99.90
19974;DHT22;10148;47.694;9.442;2022-07-23T00:49:28;19.40;99.90
19974;DHT22;10148;47.694;9.442;2022-07-23T00:51:54;19.40;99.90
19974;DHT22;10148;47.694;9.442;2022-07-23T00:54:22;19.40;99.90
19974;DHT22;10148;47.694;9.442;2022-07-23T00:56:49;19.20;99.90
19974;DHT22;10148;47.694;9.442;2022-07-23T00:59:14;19.10;99.90
19974;DHT22;10148;47.694;9.442;2022-07-23T01:01:41;19.10;99.90
19974;DHT22;10148;47.694;9.442;2022-07-23T01:04:06;19.10;99.90
19974;DHT22;10148;47.694;9.442;2022-07-23T01:06:36;19.20;99.90
19974;DHT22;10148;47.694;9.442;2022-07-23T01:09:04;19.10;99.90
19974;DHT22;10148;47.694;9.442;2022-07-23T01:11:31;19.10;99.90
19974;DHT22;10148;47.694;9.442;2022-07-23T01:13:56;19.00;99.90
19974;DHT22;10148;47.694;9.442;2022-07-23T01:16:22;18.90;99.90
19974;DHT22;10148;47.694;9.442;2022-07-23T01:18:48;18.90;99.90
19974;DHT22;10148;47.694;9.442;2022-07-23T01:21:18;18.90;99.90
19974;DHT22;10148;47.694;9.442;2022-07-23T01:23:44;18.80;99.90
19974;DHT22;10148;47.694;9.442;2022-07-23T01:26:09;18.80;99.90
19974;DHT22;10148;47.694;9.442;2022-07-23T01:28:35;18.80;99.90
19974;DHT22;10148;47.694;9.442;2022-07-23T01:31:00;18.70;99.90
19974;DHT22;10148;47.694;9.442;2022-07-23T01:33:26;18.70;99.90
19974;DHT22;10148;47.694;9.442;2022-07-23T01:35:52;18.70;99.90
19974;DHT22;10148;47.694;9.442;2022-07-23T01:38:17;18.70;99.90
19974;DHT22;10148;47.694;9.442;2022-07-23T01:40:43;18.70;99.90
19974;DHT22;10148;47.694;9.442;2022-07-23T01:43:08;18.70;99.90
19974;DHT22;10148;47.694;9.442;2022-07-23T01:45:34;18.70;99.90
19974;DHT22;10148;47.694;9.442;2022-07-23T01:47:59;18.70;99.90
19974;DHT22;10148;47.694;9.442;2022-07-23T01:50:25;18.80;99.90
19974;DHT22;10148;47.694;9.442;2022-07-23T01:52:50;18.80;99.90
19974;DHT22;10148;47.694;9.442;2022-07-23T01:55:16;18.80;99.90
19974;DHT22;10148;47.694;9.442;2022-07-23T01:57:41;18.90;99.90
19974;DHT22;10148;47.694;9.442;2022-07-23T02:00:07;18.90;99.90
19974;DHT22;10148;47.694;9.442;2022-07-23T02:02:33;18.90;99.90
19974;DHT22;10148;47.694;9.442;2022-07-23T02:04:59;18.80;99.90
19974;DHT22;10148;47.694;9.442;2022-07-23T02:07:24;18.70;99.90
19974;DHT22;10148;47.694;9.442;2022-07-23T02:09:50;18.70;99.90
19974;DHT22;10148;47.694;9.442;2022-07-23T02:12:15;18.60;99.90
19974;DHT22;10148;47.694;9.442;2022-07-23T02:14:41;18.60;99.90
19974;DHT22;10148;47.694;9.442;2022-07-23T02:17:06;18.50;99.90
19974;DHT22;10148;47.694;9.442;2022-07-23T02:19:32;18.50;99.90
19974;DHT22;10148;47.694;9.442;2022-07-23T02:21:57;18.50;99.90
19974;DHT22;10148;47.694;9.442;2022-07-23T02:24:23;18.50;99.90
19974;DHT22;10148;47.694;9.442;2022-07-23T02:26:48;18.40;99.90
19974;DHT22;10148;47.694;9.442;2022-07-23T02:29:14;18.40;99.90
19974;DHT22;10148;47.694;9.442;2022-07-23T02:31:39;18.40;99.90
19974;DHT22;10148;47.694;9.442;2022-07-23T02:34:05;18.30;99.90
19974;DHT22;10148;47.694;9.442;2022-07-23T02:36:32;18.30;99.90
19974;DHT22;10148;47.694;9.442;2022-07-23T02:38:58;18.30;99.90
19974;DHT22;10148;47.694;9.442;2022-07-23T02:41:23;18.30;99.90
19974;DHT22;10148;47.694;9.442;2022-07-23T02:43:49;18.30;99.90
19974;DHT22;10148;47.694;9.442;2022-07-23T02:46:14;18.30;99.90
19974;DHT22;10148;47.694;9.442;2022-07-23T02:48:40;18.30;99.90
19974;DHT22;10148;47.694;9.442;2022-07-23T02:51:06;18.30;99.90
19974;DHT22;10148;47.694;9.442;2022-07-23T02:53:31;18.30;99.90
19974;DHT22;10148;47.694;9.442;2022-07-23T02:55:57;18.30;99.90
19974;DHT22;10148;47.694;9.442;2022-07-23T02:58:22;18.30;99.90
19974;DHT22;10148;47.694;9.442;2022-07-23T03:00:48;18.30;99.90
19974;DHT22;10148;47.694;9.442;2022-07-23T03:03:13;18.30;99.90
19974;DHT22;10148;47.694;9.442;2022-07-23T03:05:39;18.40;99.90
19974;DHT22;10148;47.694;9.442;2022-07-23T03:08:04;18.30;99.90
19974;DHT22;10148;47.694;9.442;2022-07-23T03:10:30;18.30;99.90
19974;DHT22;10148;47.694;9.442;2022-07-23T03:12:55;18.20;99.90
19974;DHT22;10148;47.694;9.442;2022-07-23T03:15:21;18.20;99.90
19974;DHT22;10148;47.694;9.442;2022-07-23T03:17:47;18.20;99.90
19974;DHT22;10148;47.694;9.442;2022-07-23T03:20:12;18.20;99.90
19974;DHT22;10148;47.694;9.442;2022-07-23T03:22:38;18.20;99.90
19974;DHT22;10148;47.694;9.442;2022-07-23T03:25:03;18.20;99.90
19974;DHT22;10148;47.694;9.442;2022-07-23T03:27:30;18.20;99.90
19974;DHT22;10148;47.694;9.442;2022-07-23T03:29:57;18.20;99.90
19974;DHT22;10148;47.694;9.442;2022-07-23T03:32:24;18.30;99.90
19974;DHT22;10148;47.694;9.442;2022-07-23T03:34:50;18.40;99.90
19974;DHT22;10148;47.694;9.442;2022-07-23T03:37:17;18.50;99.90
19974;DHT22;10148;47.694;9.442;2022-07-23T03:39:43;18.60;99.90
19974;DHT22;10148;47.694;9.442;2022-07-23T03:42:08;18.70;99.90
19974;DHT22;10148;47.694;9.442;2022-07-23T03:44:34;18.80;99.90
19974;DHT22;10148;47.694;9.442;2022-07-23T03:47:02;18.80;99.90
19974;DHT22;10148;47.694;9.442;2022-07-23T03:49:28;18.80;99.90
19974;DHT22;10148;47.694;9.442;2022-07-23T03:51:53;18.80;99.90
19974;DHT22;10148;47.694;9.442;2022-07-23T03:54:19;18.80;99.90
19974;DHT22;10148;47.694;9.442;2022-07-23T03:56:44;18.80;99.90
19974;DHT22;10148;47.694;9.442;2022-07-23T03:59:10;18.80;99.90
19974;DHT22;10148;47.694;9.442;2022-07-23T04:01:35;18.70;99.90
19974;DHT22;10148;47.694;9.442;2022-07-23T04:04:02;18.80;99.90
19974;DHT22;10148;47.694;9.442;2022-07-23T04:06:27;18.80;99.90
19974;DHT22;10148;47.694;9.442;2022-07-23T04:08:53;18.80;99.90
19974;DHT22;10148;47.694;9.442;2022-07-23T04:11:19;18.80;99.90
19974;DHT22;10148;47.694;9.442;2022-07-23T04:13:44;18.80;99.90
19974;DHT22;10148;47.694;9.442;2022-07-23T04:16:10;18.90;99.90
19974;DHT22;10148;47.694;9.442;2022-07-23T04:18:35;18.90;99.90
19974;DHT22;10148;47.694;9.442;2022-07-23T04:21:01;18.90;99.90
19974;DHT22;10148;47.694;9.442;2022-07-23T04:23:26;19.00;99.90
19974;DHT22;10148;47.694;9.442;2022-07-23T04:25:52;19.00;99.90
19974;DHT22;10148;47.694;9.442;2022-07-23T04:28:17;19.00;99.90
19974;DHT22;10148;47.694;9.442;2022-07-23T04:30:43;19.00;99.90
19974;DHT22;10148;47.694;9.442;2022-07-23T04:33:09;19.00;99.90
19974;DHT22;10148;47.694;9.442;2022-07-23T04:35:35;19.00;99.90
19974;DHT22;10148;47.694;9.442;2022-07-23T04:38:01;18.90;99.90
19974;DHT22;10148;47.694;9.442;2022-07-23T04:40:27;18.90;99.90
19974;DHT22;10148;47.694;9.442;2022-07-23T04:42:53;18.90;99.90
19974;DHT22;10148;47.694;9.442;2022-07-23T04:45:18;18.90;99.90
19974;DHT22;10148;47.694;9.442;2022-07-23T04:47:44;18.90;99.90
19974;DHT22;10148;47.694;9.442;2022-07-23T04:50:10;18.90;99.90
19974;DHT22;10148;47.694;9.442;2022-07-23T04:52:35;18.90;99.90
19974;DHT22;10148;47.694;9.442;2022-07-23T04:55:01;19.00;99.90
19974;DHT22;10148;47.694;9.442;2022-07-23T04:57:27;19.10;99.90
19974;DHT22;10148;47.694;9.442;2022-07-23T04:59:53;19.10;99.90
19974;DHT22;10148;47.694;9.442;2022-07-23T05:02:18;19.20;99.90
19974;DHT22;10148;47.694;9.442;2022-07-23T05:04:44;19.20;99.90
19974;DHT22;10148;47.694;9.442;2022-07-23T05:07:09;19.30;99.90
19974;DHT22;10148;47.694;9.442;2022-07-23T05:09:35;19.30;99.90
19974;DHT22;10148;47.694;9.442;2022-07-23T05:12:00;19.30;99.90
19974;DHT22;10148;47.694;9.442;2022-07-23T05:14:26;19.30;99.90
19974;DHT22;10148;47.694;9.442;2022-07-23T05:16:53;19.30;99.90
19974;DHT22;10148;47.694;9.442;2022-07-23T05:19:18;19.20;99.90
19974;DHT22;10148;47.694;9.442;2022-07-23T05:21:44;19.20;99.90
19974;DHT22;10148;47.694;9.442;2022-07-23T05:24:09;19.20;99.90
19974;DHT22;10148;47.694;9.442;2022-07-23T05:26:35;19.20;99.90
19974;DHT22;10148;47.694;9.442;2022-07-23T05:29:00;19.10;99.90
19974;DHT22;10148;47.694;9.442;2022-07-23T05:31:26;19.10;99.90
19974;DHT22;10148;47.694;9.442;2022-07-23T05:33:51;19.00;99.90
19974;DHT22;10148;47.694;9.442;2022-07-23T05:36:17;19.00;99.90
19974;DHT22;10148;47.694;9.442;2022-07-23T05:38:42;19.00;99.90
19974;DHT22;10148;47.694;9.442;2022-07-23T05:41:08;19.00;99.90
19974;DHT22;10148;47.694;9.442;2022-07-23T05:43:33;18.90;99.90
19974;DHT22;10148;47.694;9.442;2022-07-23T05:45:59;19.00;99.90
19974;DHT22;10148;47.694;9.442;2022-07-23T05:48:25;19.00;99.90
19974;DHT22;10148;47.694;9.442;2022-07-23T05:50:51;18.90;99.90
19974;DHT22;10148;47.694;9.442;2022-07-23T05:53:16;19.00;99.90
19974;DHT22;10148;47.694;9.442;2022-07-23T05:55:42;19.00;99.90
19974;DHT22;10148;47.694;9.442;2022-07-23T05:58:07;19.00;99.90
19974;DHT22;10148;47.694;9.442;2022-07-23T06:00:34;19.00;99.90
19974;DHT22;10148;47.694;9.442;2022-07-23T06:02:59;19.00;99.90
19974;DHT22;10148;47.694;9.442;2022-07-23T06:05:25;19.00;99.90
19974;DHT22;10148;47.694;9.442;2022-07-23T06:07:51;19.10;99.90
19974;DHT22;10148;47.694;9.442;2022-07-23T06:10:16;19.60;99.90
19974;DHT22;10148;47.694;9.442;2022-07-23T06:12:42;20.00;99.90
19974;DHT22;10148;47.694;9.442;2022-07-23T06:15:08;20.00;99.90
19974;DHT22;10148;47.694;9.442;2022-07-23T06:17:34;19.90;99.90
19974;DHT22;10148;47.694;9.442;2022-07-23T06:20:00;20.00;99.90
19974;DHT22;10148;47.694;9.442;2022-07-23T06:22:25;19.80;99.90
19974;DHT22;10148;47.694;9.442;2022-07-23T06:24:51;19.80;99.90
19974;DHT22;10148;47.694;9.442;2022-07-23T06:27:17;19.70;99.90
19974;DHT22;10148;47.694;9.442;2022-07-23T06:29:43;19.70;99.90
19974;DHT22;10148;47.694;9.442;2022-07-23T06:32:08;19.60;99.90
19974;DHT22;10148;47.694;9.442;2022-07-23T06:34:34;19.60;99.90
19974;DHT22;10148;47.694;9.442;2022-07-23T06:37:00;19.60;99.90
19974;DHT22;10148;47.694;9.442;2022-07-23T06:39:25;20.00;99.90
19974;DHT22;10148;47.694;9.442;2022-07-23T06:41:51;20.60;99.90
19974;DHT22;10148;47.694;9.442;2022-07-23T06:44:17;20.40;99.90
19974;DHT22;10148;47.694;9.442;2022-07-23T06:46:43;20.10;99.90
19974;DHT22;10148;47.694;9.442;2022-07-23T06:49:08;20.20;99.90
19974;DHT22;10148;47.694;9.442;2022-07-23T06:51:34;19.90;99.90
19974;DHT22;10148;47.694;9.442;2022-07-23T06:53:59;19.80;99.90
19974;DHT22;10148;47.694;9.442;2022-07-23T06:56:25;19.70;99.90
19974;DHT22;10148;47.694;9.442;2022-07-23T06:58:51;19.70;99.90
19974;DHT22;10148;47.694;9.442;2022-07-23T07:01:16;20.00;99.90
19974;DHT22;10148;47.694;9.442;2022-07-23T07:03:42;20.10;99.90
19974;DHT22;10148;47.694;9.442;2022-07-23T07:06:07;20.10;99.90
19974;DHT22;10148;47.694;9.442;2022-07-23T07:08:33;20.00;99.90
19974;DHT22;10148;47.694;9.442;2022-07-23T07:10:58;20.10;99.90
19974;DHT22;10148;47.694;9.442;2022-07-23T07:13:24;20.10;99.90
19974;DHT22;10148;47.694;9.442;2022-07-23T07:15:49;20.00;99.90
19974;DHT22;10148;47.694;9.442;2022-07-23T07:18:15;19.90;99.90
19974;DHT22;10148;47.694;9.442;2022-07-23T07:20:41;19.80;99.90
19974;DHT22;10148;47.694;9.442;2022-07-23T07:23:06;19.70;99.90
19974;DHT22;10148;47.694;9.442;2022-07-23T07:25:32;19.80;99.90
19974;DHT22;10148;47.694;9.442;2022-07-23T07:27:57;19.80;99.90
19974;DHT22;10148;47.694;9.442;2022-07-23T07:30:24;19.80;99.90
19974;DHT22;10148;47.694;9.442;2022-07-23T07:32:50;19.80;99.90
19974;DHT22;10148;47.694;9.442;2022-07-23T07:35:15;19.80;99.90
19974;DHT22;10148;47.694;9.442;2022-07-23T07:37:41;19.80;99.90
19974;DHT22;10148;47.694;9.442;2022-07-23T07:40:07;19.70;99.90
19974;DHT22;10148;47.694;9.442;2022-07-23T07:42:33;19.70;99.90
19974;DHT22;10148;47.694;9.442;2022-07-23T07:44:58;19.70;99.90
19974;DHT22;10148;47.694;9.442;2022-07-23T07:47:24;19.70;99.90
19974;DHT22;10148;47.694;9.442;2022-07-23T07:49:50;19.70;99.90
19974;DHT22;10148;47.694;9.442;2022-07-23T07:52:15;19.80;99.90
19974;DHT22;10148;47.694;9.442;2022-07-23T07:54:41;19.90;99.90
19974;DHT22;10148;47.694;9.442;2022-07-23T07:57:06;19.90;99.90
19974;DHT22;10148;47.694;9.442;2022-07-23T07:59:32;19.90;99.90
19974;DHT22;10148;47.694;9.442;2022-07-23T08:01:58;19.90;99.90
19974;DHT22;10148;47.694;9.442;2022-07-23T08:04:23;19.80;99.90
19974;DHT22;10148;47.694;9.442;2022-07-23T08:06:49;19.80;99.90
19974;DHT22;10148;47.694;9.442;2022-07-23T08:09:14;19.80;99.90
19974;DHT22;10148;47.694;9.442;2022-07-23T08:11:40;19.80;99.90
19974;DHT22;10148;47.694;9.442;2022-07-23T08:14:05;19.80;99.90
19974;DHT22;10148;47.694;9.442;2022-07-23T08:16:31;19.70;99.90
19974;DHT22;10148;47.694;9.442;2022-07-23T08:18:57;19.80;99.90
19974;DHT22;10148;47.694;9.442;2022-07-23T08:21:22;19.70;99.90
19974;DHT22;10148;47.694;9.442;2022-07-23T08:23:48;19.80;99.90
19974;DHT22;10148;47.694;9.442;2022-07-23T08:26:13;19.80;99.90
19974;DHT22;10148;47.694;9.442;2022-07-23T08:28:39;19.80;99.90
19974;DHT22;10148;47.694;9.442;2022-07-23T08:31:05;19.90;99.90
19974;DHT22;10148;47.694;9.442;2022-07-23T08:33:33;20.00;99.90
19974;DHT22;10148;47.694;9.442;2022-07-23T08:36:00;20.00;99.90
19974;DHT22;10148;47.694;9.442;2022-07-23T08:38:27;20.10;99.90
19974;DHT22;10148;47.694;9.442;2022-07-23T08:40:55;20.10;99.90
19974;DHT22;10148;47.694;9.442;2022-07-23T08:43:32;20.10;99.90
19974;DHT22;10148;47.694;9.442;2022-07-23T08:46:00;20.20;99.90
19974;DHT22;10148;47.694;9.442;2022-07-23T08:48:28;20.20;99.90
19974;DHT22;10148;47.694;9.442;2022-07-23T08:50:56;20.20;99.90
19974;DHT22;10148;47.694;9.442;2022-07-23T08:53:23;20.20;99.90
19974;DHT22;10148;47.694;9.442;2022-07-23T08:55:52;20.10;99.90
19974;DHT22;10148;47.694;9.442;2022-07-23T08:58:18;20.10;99.90
19974;DHT22;10148;47.694;9.442;2022-07-23T09:00:45;20.10;99.90
19974;DHT22;10148;47.694;9.442;2022-07-23T09:05:41;20.10;99.90
19974;DHT22;10148;47.694;9.442;2022-07-23T09:08:18;20.10;99.90
19974;DHT22;10148;47.694;9.442;2022-07-23T09:10:48;20.10;99.90
19974;DHT22;10148;47.694;9.442;2022-07-23T09:16:00;20.20;99.90
19974;DHT22;10148;47.694;9.442;2022-07-23T09:18:34;20.30;99.90
19974;DHT22;10148;47.694;9.442;2022-07-23T09:21:17;20.30;99.90
19974;DHT22;10148;47.694;9.442;2022-07-23T09:23:44;20.40;99.90
19974;DHT22;10148;47.694;9.442;2022-07-23T09:26:21;20.40;99.90
19974;DHT22;10148;47.694;9.442;2022-07-23T09:28:50;20.40;99.90
19974;DHT22;10148;47.694;9.442;2022-07-23T09:31:16;20.50;99.90
19974;DHT22;10148;47.694;9.442;2022-07-23T09:33:42;20.50;99.90
19974;DHT22;10148;47.694;9.442;2022-07-23T09:36:07;20.50;99.90
19974;DHT22;10148;47.694;9.442;2022-07-23T09:38:34;20.50;99.90
19974;DHT22;10148;47.694;9.442;2022-07-23T09:41:12;20.50;99.90
19974;DHT22;10148;47.694;9.442;2022-07-23T09:43:39;20.60;99.90
19974;DHT22;10148;47.694;9.442;2022-07-23T09:46:25;20.60;99.90
19974;DHT22;10148;47.694;9.442;2022-07-23T09:48:52;20.60;99.90
19974;DHT22;10148;47.694;9.442;2022-07-23T09:51:18;20.60;99.90
19974;DHT22;10148;47.694;9.442;2022-07-23T09:53:58;20.60;99.90
19974;DHT22;10148;47.694;9.442;2022-07-23T09:56:26;20.50;99.90
19974;DHT22;10148;47.694;9.442;2022-07-23T09:58:52;20.50;99.90
19974;DHT22;10148;47.694;9.442;2022-07-23T10:01:28;20.50;99.90
19974;DHT22;10148;47.694;9.442;2022-07-23T10:03:54;20.60;99.90
19974;DHT22;10148;47.694;9.442;2022-07-23T10:06:20;20.60;99.90
19974;DHT22;10148;47.694;9.442;2022-07-23T10:08:48;20.70;99.90
19974;DHT22;10148;47.694;9.442;2022-07-23T10:11:14;20.80;99.90
19974;DHT22;10148;47.694;9.442;2022-07-23T10:13:42;20.80;99.90
19974;DHT22;10148;47.694;9.442;2022-07-23T10:16:13;20.90;99.90
19974;DHT22;10148;47.694;9.442;2022-07-23T10:18:39;21.00;99.90
19974;DHT22;10148;47.694;9.442;2022-07-23T10:21:07;21.10;99.90
19974;DHT22;10148;47.694;9.442;2022-07-23T10:23:44;21.20;99.90
19974;DHT22;10148;47.694;9.442;2022-07-23T10:26:38;21.30;99.90
19974;DHT22;10148;47.694;9.442;2022-07-23T10:37:23;21.50;99.90
19974;DHT22;10148;47.694;9.442;2022-07-23T10:42:36;21.60;99.90
19974;DHT22;10148;47.694;9.442;2022-07-23T10:45:32;21.70;99.90
19974;DHT22;10148;47.694;9.442;2022-07-23T10:48:18;21.70;99.90
19974;DHT22;10148;47.694;9.442;2022-07-23T10:51:16;21.70;99.90
19974;DHT22;10148;47.694;9.442;2022-07-23T10:53:59;21.60;99.90
19974;DHT22;10148;47.694;9.442;2022-07-23T10:59:22;21.70;99.90
19974;DHT22;10148;47.694;9.442;2022-07-23T11:01:48;21.80;99.90
19974;DHT22;10148;47.694;9.442;2022-07-23T11:04:14;21.80;99.90
19974;DHT22;10148;47.694;9.442;2022-07-23T11:09:28;21.70;99.90
19974;DHT22;10148;47.694;9.442;2022-07-23T11:15:11;21.70;99.90
19974;DHT22;10148;47.694;9.442;2022-07-23T11:17:58;21.70;99.90
19974;DHT22;10148;47.694;9.442;2022-07-23T11:20:25;21.60;99.90
19974;DHT22;10148;47.694;9.442;2022-07-23T11:22:54;21.70;99.90
19974;DHT22;10148;47.694;9.442;2022-07-23T11:27:55;21.60;99.90
19974;DHT22;10148;47.694;9.442;2022-07-23T11:35:37;21.60;99.90
19974;DHT22;10148;47.694;9.442;2022-07-23T11:38:21;21.50;99.90
19974;DHT22;10148;47.694;9.442;2022-07-23T11:40:55;21.40;99.90
19974;DHT22;10148;47.694;9.442;2022-07-23T11:43:23;21.40;99.90
19974;DHT22;10148;47.694;9.442;2022-07-23T11:45:51;21.40;99.90
19974;DHT22;10148;47.694;9.442;2022-07-23T11:48:22;21.50;99.90
19974;DHT22;10148;47.694;9.442;2022-07-23T11:50:49;21.60;99.90
19974;DHT22;10148;47.694;9.442;2022-07-23T11:53:30;21.60;99.90
19974;DHT22;10148;47.694;9.442;2022-07-23T11:56:10;21.60;99.90
19974;DHT22;10148;47.694;9.442;2022-07-23T11:58:36;21.60;99.90
19974;DHT22;10148;47.694;9.442;2022-07-23T12:01:02;21.50;99.90
19974;DHT22;10148;47.694;9.442;2022-07-23T12:03:28;21.40;99.90
19974;DHT22;10148;47.694;9.442;2022-07-23T12:05:58;21.40;99.90
19974;DHT22;10148;47.694;9.442;2022-07-23T12:08:24;21.40;99.90
19974;DHT22;10148;47.694;9.442;2022-07-23T12:10:50;21.50;99.90
19974;DHT22;10148;47.694;9.442;2022-07-23T12:13:17;21.50;99.90
19974;DHT22;10148;47.694;9.442;2022-07-23T12:15:49;21.60;99.90
19974;DHT22;10148;47.694;9.442;2022-07-23T12:18:17;21.50;99.90
19974;DHT22;10148;47.694;9.442;2022-07-23T12:20:46;21.60;99.90
19974;DHT22;10148;47.694;9.442;2022-07-23T12:23:14;21.60;99.90
19974;DHT22;10148;47.694;9.442;2022-07-23T12:25:44;21.60;99.90
19974;DHT22;10148;47.694;9.442;2022-07-23T12:28:14;21.70;99.90
19974;DHT22;10148;47.694;9.442;2022-07-23T12:30:46;21.90;99.90
19974;DHT22;10148;47.694;9.442;2022-07-23T12:33:24;22.10;99.90
19974;DHT22;10148;47.694;9.442;2022-07-23T12:35:51;22.30;99.90
19974;DHT22;10148;47.694;9.442;2022-07-23T12:38:19;22.60;99.90
19974;DHT22;10148;47.694;9.442;2022-07-23T12:40:56;23.00;99.90
19974;DHT22;10148;47.694;9.442;2022-07-23T12:43:25;23.30;99.90
19974;DHT22;10148;47.694;9.442;2022-07-23T12:48:25;23.50;99.90
19974;DHT22;10148;47.694;9.442;2022-07-23T12:55:56;23.60;99.90
19974;DHT22;10148;47.694;9.442;2022-07-23T12:58:22;23.60;99.90
19974;DHT22;10148;47.694;9.442;2022-07-23T13:01:00;23.60;99.90
19974;DHT22;10148;47.694;9.442;2022-07-23T13:03:40;23.70;99.90
19974;DHT22;10148;47.694;9.442;2022-07-23T13:06:10;23.80;99.90
19974;DHT22;10148;47.694;9.442;2022-07-23T13:08:38;23.80;99.90
19974;DHT22;10148;47.694;9.442;2022-07-23T13:11:04;23.60;99.90
19974;DHT22;10148;47.694;9.442;2022-07-23T13:13:32;23.70;99.90
19974;DHT22;10148;47.694;9.442;2022-07-23T13:15:59;23.90;99.90
19974;DHT22;10148;47.694;9.442;2022-07-23T13:18:25;24.30;99.90
19974;DHT22;10148;47.694;9.442;2022-07-23T13:20:52;24.70;99.90
19974;DHT22;10148;47.694;9.442;2022-07-23T13:23:18;24.90;99.90
19974;DHT22;10148;47.694;9.442;2022-07-23T13:25:44;25.10;99.90
19974;DHT22;10148;47.694;9.442;2022-07-23T13:28:10;25.50;99.90
19974;DHT22;10148;47.694;9.442;2022-07-23T13:30:36;25.70;99.90
19974;DHT22;10148;47.694;9.442;2022-07-23T13:33:03;25.80;99.90
19974;DHT22;10148;47.694;9.442;2022-07-23T13:35:28;25.60;99.90
19974;DHT22;10148;47.694;9.442;2022-07-23T13:37:54;25.30;99.90
19974;DHT22;10148;47.694;9.442;2022-07-23T13:40:20;25.30;99.90
19974;DHT22;10148;47.694;9.442;2022-07-23T13:42:46;25.20;99.90
19974;DHT22;10148;47.694;9.442;2022-07-23T13:45:11;25.40;99.90
19974;DHT22;10148;47.694;9.442;2022-07-23T13:47:37;25.70;99.90
19974;DHT22;10148;47.694;9.442;2022-07-23T13:50:03;26.10;99.90
19974;DHT22;10148;47.694;9.442;2022-07-23T13:52:29;26.00;99.90
19974;DHT22;10148;47.694;9.442;2022-07-23T13:54:54;25.90;99.90
19974;DHT22;10148;47.694;9.442;2022-07-23T13:57:20;26.20;99.90
19974;DHT22;10148;47.694;9.442;2022-07-23T13:59:45;26.30;99.90
19974;DHT22;10148;47.694;9.442;2022-07-23T14:02:14;26.60;99.90
19974;DHT22;10148;47.694;9.442;2022-07-23T14:04:40;26.70;99.90
19974;DHT22;10148;47.694;9.442;2022-07-23T14:07:06;26.70;99.90
19974;DHT22;10148;47.694;9.442;2022-07-23T14:09:31;26.90;99.90
19974;DHT22;10148;47.694;9.442;2022-07-23T14:11:59;27.10;99.90
19974;DHT22;10148;47.694;9.442;2022-07-23T14:14:25;27.10;99.90
19974;DHT22;10148;47.694;9.442;2022-07-23T14:16:51;27.10;99.90
19974;DHT22;10148;47.694;9.442;2022-07-23T14:19:16;27.40;99.90
19974;DHT22;10148;47.694;9.442;2022-07-23T14:21:42;27.30;99.90
19974;DHT22;10148;47.694;9.442;2022-07-23T14:24:08;27.50;99.90
19974;DHT22;10148;47.694;9.442;2022-07-23T14:26:33;27.30;99.90
19974;DHT22;10148;47.694;9.442;2022-07-23T14:28:59;27.20;99.90
19974;DHT22;10148;47.694;9.442;2022-07-23T14:31:25;27.40;99.90
19974;DHT22;10148;47.694;9.442;2022-07-23T14:33:50;27.40;99.90
19974;DHT22;10148;47.694;9.442;2022-07-23T14:36:16;27.40;99.90
19974;DHT22;10148;47.694;9.442;2022-07-23T14:38:42;27.20;99.90
19974;DHT22;10148;47.694;9.442;2022-07-23T14:41:07;27.10;99.90
19974;DHT22;10148;47.694;9.442;2022-07-23T14:43:33;27.20;99.90
19974;DHT22;10148;47.694;9.442;2022-07-23T14:45:59;27.50;99.90
19974;DHT22;10148;47.694;9.442;2022-07-23T14:48:25;27.80;99.90
19974;DHT22;10148;47.694;9.442;2022-07-23T14:50:50;28.00;99.90
19974;DHT22;10148;47.694;9.442;2022-07-23T14:53:16;28.00;99.90
19974;DHT22;10148;47.694;9.442;2022-07-23T14:55:42;28.10;99.90
19974;DHT22;10148;47.694;9.442;2022-07-23T14:58:07;28.10;99.90
19974;DHT22;10148;47.694;9.442;2022-07-23T15:00:33;28.00;99.90
19974;DHT22;10148;47.694;9.442;2022-07-23T15:02:58;27.90;99.90
19974;DHT22;10148;47.694;9.442;2022-07-23T15:05:24;27.80;99.90
19974;DHT22;10148;47.694;9.442;2022-07-23T15:07:50;27.70;99.90
19974;DHT22;10148;47.694;9.442;2022-07-23T15:10:16;27.70;99.90
19974;DHT22;10148;47.694;9.442;2022-07-23T15:12:41;27.90;99.90
19974;DHT22;10148;47.694;9.442;2022-07-23T15:15:07;27.60;99.90
19974;DHT22;10148;47.694;9.442;2022-07-23T15:17:33;27.60;99.90
19974;DHT22;10148;47.694;9.442;2022-07-23T15:19:59;27.80;99.90
19974;DHT22;10148;47.694;9.442;2022-07-23T15:22:24;28.00;99.90
19974;DHT22;10148;47.694;9.442;2022-07-23T15:24:50;28.30;99.90
19974;DHT22;10148;47.694;9.442;2022-07-23T15:27:16;28.40;99.90
19974;DHT22;10148;47.694;9.442;2022-07-23T15:29:43;28.50;99.90
19974;DHT22;10148;47.694;9.442;2022-07-23T15:32:09;28.70;99.90
19974;DHT22;10148;47.694;9.442;2022-07-23T15:34:34;28.50;99.90
19974;DHT22;10148;47.694;9.442;2022-07-23T15:37:00;28.80;99.90
19974;DHT22;10148;47.694;9.442;2022-07-23T15:39:26;29.20;99.90
19974;DHT22;10148;47.694;9.442;2022-07-23T15:41:53;29.30;99.90
19974;DHT22;10148;47.694;9.442;2022-07-23T15:44:19;29.10;99.90
19974;DHT22;10148;47.694;9.442;2022-07-23T15:46:44;29.00;99.90
19974;DHT22;10148;47.694;9.442;2022-07-23T15:49:10;29.10;99.90
19974;DHT22;10148;47.694;9.442;2022-07-23T15:51:35;29.10;99.90
19974;DHT22;10148;47.694;9.442;2022-07-23T15:54:01;29.00;99.90
19974;DHT22;10148;47.694;9.442;2022-07-23T15:56:26;29.10;99.90
19974;DHT22;10148;47.694;9.442;2022-07-23T15:58:52;29.40;99.90
19974;DHT22;10148;47.694;9.442;2022-07-23T16:01:18;29.60;99.90
19974;DHT22;10148;47.694;9.442;2022-07-23T16:03:43;29.50;99.90
19974;DHT22;10148;47.694;9.442;2022-07-23T16:06:09;29.50;99.90
19974;DHT22;10148;47.694;9.442;2022-07-23T16:08:34;29.50;99.90